Agadir Al Massira, Morocco
Current Conditions -  °F | °C
As of 2:00 AM on Tuesday 23 Dec 2014 (Local Time) from GMAD Reporting Station
Clear Clear  
Wind Chill: 10°   Ceiling: Unl
Heat Index: 10°   Visibility: 6mi
Dew Point:   Wind: 7mph
Humidity: 87%   Direction: 40°NE
Pressure: 30.24"   Gusts: NA
Location:  30.33°N, 9.4°W
Report Text: GMAD 230100Z 04006KT CAVOK 10/08 Q1024 NOSIG
Loading
Personal Weather Stations






























Interactive Weather Map New forecast layout! Learn more

10-Day Weather Forecast

Advertisements
Track Severe Weather on mobile